sensor_id;sensor_type;location;lat;lon;timestamp;P1;durP1;ratioP1;P2;durP2;ratioP2
8474;SDS011;4274;52.012;8.448;2023-04-08T00:00:13;49.43;;;8.50;;
8474;SDS011;4274;52.012;8.448;2023-04-08T00:02:39;50.20;;;10.20;;
8474;SDS011;4274;52.012;8.448;2023-04-08T00:05:05;49.57;;;9.30;;
8474;SDS011;4274;52.012;8.448;2023-04-08T00:07:31;48.37;;;9.10;;
8474;SDS011;4274;52.012;8.448;2023-04-08T00:09:57;49.80;;;9.10;;
8474;SDS011;4274;52.012;8.448;2023-04-08T00:12:23;50.00;;;9.30;;
8474;SDS011;4274;52.012;8.448;2023-04-08T00:14:48;51.90;;;9.37;;
8474;SDS011;4274;52.012;8.448;2023-04-08T00:17:14;54.60;;;9.70;;
8474;SDS011;4274;52.012;8.448;2023-04-08T00:19:40;48.30;;;8.50;;
8474;SDS011;4274;52.012;8.448;2023-04-08T00:22:06;47.30;;;8.60;;
8474;SDS011;4274;52.012;8.448;2023-04-08T00:24:32;48.20;;;9.30;;
8474;SDS011;4274;52.012;8.448;2023-04-08T00:26:58;50.60;;;8.80;;
8474;SDS011;4274;52.012;8.448;2023-04-08T00:29:23;54.60;;;9.47;;
8474;SDS011;4274;52.012;8.448;2023-04-08T00:31:49;49.80;;;8.27;;
8474;SDS011;4274;52.012;8.448;2023-04-08T00:34:15;49.10;;;9.27;;
8474;SDS011;4274;52.012;8.448;2023-04-08T00:36:41;48.87;;;9.00;;
8474;SDS011;4274;52.012;8.448;2023-04-08T00:39:06;53.73;;;9.53;;
8474;SDS011;4274;52.012;8.448;2023-04-08T00:41:33;46.17;;;7.87;;
8474;SDS011;4274;52.012;8.448;2023-04-08T00:43:59;46.00;;;8.23;;
8474;SDS011;4274;52.012;8.448;2023-04-08T00:46:25;54.43;;;8.20;;
8474;SDS011;4274;52.012;8.448;2023-04-08T00:48:51;47.17;;;7.73;;
8474;SDS011;4274;52.012;8.448;2023-04-08T00:51:17;46.23;;;8.37;;
8474;SDS011;4274;52.012;8.448;2023-04-08T00:53:43;47.77;;;7.40;;
8474;SDS011;4274;52.012;8.448;2023-04-08T00:56:09;47.40;;;8.10;;
8474;SDS011;4274;52.012;8.448;2023-04-08T00:58:35;46.83;;;7.43;;
8474;SDS011;4274;52.012;8.448;2023-04-08T01:01:11;46.57;;;7.40;;
8474;SDS011;4274;52.012;8.448;2023-04-08T01:03:49;47.40;;;7.83;;
8474;SDS011;4274;52.012;8.448;2023-04-08T01:06:40;47.30;;;7.13;;
8474;SDS011;4274;52.012;8.448;2023-04-08T01:09:32;45.00;;;6.73;;
8474;SDS011;4274;52.012;8.448;2023-04-08T01:12:03;45.60;;;7.17;;
8474;SDS011;4274;52.012;8.448;2023-04-08T01:14:31;46.60;;;7.80;;
8474;SDS011;4274;52.012;8.448;2023-04-08T01:17:02;46.00;;;6.33;;
8474;SDS011;4274;52.012;8.448;2023-04-08T01:19:30;46.47;;;7.07;;
8474;SDS011;4274;52.012;8.448;2023-04-08T01:22:07;45.20;;;6.93;;
8474;SDS011;4274;52.012;8.448;2023-04-08T01:24:42;45.37;;;6.60;;
8474;SDS011;4274;52.012;8.448;2023-04-08T01:27:09;44.80;;;6.50;;
8474;SDS011;4274;52.012;8.448;2023-04-08T01:29:36;47.83;;;7.90;;
8474;SDS011;4274;52.012;8.448;2023-04-08T01:32:02;44.50;;;6.80;;
8474;SDS011;4274;52.012;8.448;2023-04-08T01:34:29;45.17;;;6.57;;
8474;SDS011;4274;52.012;8.448;2023-04-08T01:36:56;44.53;;;5.90;;
8474;SDS011;4274;52.012;8.448;2023-04-08T01:39:23;44.77;;;5.63;;
8474;SDS011;4274;52.012;8.448;2023-04-08T01:41:49;44.27;;;6.30;;
8474;SDS011;4274;52.012;8.448;2023-04-08T01:44:18;43.90;;;6.10;;
8474;SDS011;4274;52.012;8.448;2023-04-08T01:46:45;44.50;;;6.27;;
8474;SDS011;4274;52.012;8.448;2023-04-08T01:49:11;45.23;;;5.90;;
8474;SDS011;4274;52.012;8.448;2023-04-08T01:51:39;43.60;;;5.80;;
8474;SDS011;4274;52.012;8.448;2023-04-08T01:54:05;44.53;;;6.10;;
8474;SDS011;4274;52.012;8.448;2023-04-08T01:56:32;46.27;;;6.57;;
8474;SDS011;4274;52.012;8.448;2023-04-08T01:59:03;46.00;;;5.80;;
8474;SDS011;4274;52.012;8.448;2023-04-08T02:01:34;46.00;;;5.97;;
8474;SDS011;4274;52.012;8.448;2023-04-08T02:04:01;44.27;;;6.40;;
8474;SDS011;4274;52.012;8.448;2023-04-08T02:06:28;45.00;;;5.60;;
8474;SDS011;4274;52.012;8.448;2023-04-08T02:08:56;45.30;;;5.77;;
8474;SDS011;4274;52.012;8.448;2023-04-08T02:11:23;46.07;;;6.00;;
8474;SDS011;4274;52.012;8.448;2023-04-08T02:13:49;43.73;;;5.90;;
8474;SDS011;4274;52.012;8.448;2023-04-08T02:16:23;46.03;;;5.83;;
8474;SDS011;4274;52.012;8.448;2023-04-08T02:19:14;44.97;;;6.30;;
8474;SDS011;4274;52.012;8.448;2023-04-08T02:21:47;47.63;;;5.87;;
8474;SDS011;4274;52.012;8.448;2023-04-08T02:24:16;43.20;;;5.40;;
8474;SDS011;4274;52.012;8.448;2023-04-08T02:26:43;48.27;;;6.97;;
8474;SDS011;4274;52.012;8.448;2023-04-08T02:29:11;44.50;;;5.77;;
8474;SDS011;4274;52.012;8.448;2023-04-08T02:31:39;44.70;;;6.00;;
8474;SDS011;4274;52.012;8.448;2023-04-08T02:34:07;44.63;;;5.77;;
8474;SDS011;4274;52.012;8.448;2023-04-08T02:36:34;49.57;;;6.40;;
8474;SDS011;4274;52.012;8.448;2023-04-08T02:39:01;44.50;;;6.20;;
8474;SDS011;4274;52.012;8.448;2023-04-08T02:41:28;44.17;;;6.23;;
8474;SDS011;4274;52.012;8.448;2023-04-08T02:43:54;44.63;;;6.30;;
8474;SDS011;4274;52.012;8.448;2023-04-08T02:46:19;46.07;;;6.67;;
8474;SDS011;4274;52.012;8.448;2023-04-08T02:48:45;45.07;;;6.47;;
8474;SDS011;4274;52.012;8.448;2023-04-08T02:51:11;46.00;;;5.90;;
8474;SDS011;4274;52.012;8.448;2023-04-08T02:53:36;45.57;;;6.00;;
8474;SDS011;4274;52.012;8.448;2023-04-08T02:56:02;47.73;;;6.87;;
8474;SDS011;4274;52.012;8.448;2023-04-08T02:58:28;45.33;;;6.43;;
8474;SDS011;4274;52.012;8.448;2023-04-08T03:00:53;44.87;;;6.10;;
8474;SDS011;4274;52.012;8.448;2023-04-08T03:03:19;48.27;;;6.27;;
8474;SDS011;4274;52.012;8.448;2023-04-08T03:05:51;45.73;;;6.50;;
8474;SDS011;4274;52.012;8.448;2023-04-08T03:08:17;47.70;;;7.17;;
8474;SDS011;4274;52.012;8.448;2023-04-08T03:10:43;48.33;;;6.77;;
8474;SDS011;4274;52.012;8.448;2023-04-08T03:13:09;46.30;;;7.90;;
8474;SDS011;4274;52.012;8.448;2023-04-08T03:15:34;46.00;;;7.60;;
8474;SDS011;4274;52.012;8.448;2023-04-08T03:18:00;46.73;;;6.93;;
8474;SDS011;4274;52.012;8.448;2023-04-08T03:20:26;45.77;;;7.63;;
8474;SDS011;4274;52.012;8.448;2023-04-08T03:22:51;45.57;;;6.53;;
8474;SDS011;4274;52.012;8.448;2023-04-08T03:25:17;49.03;;;8.10;;
8474;SDS011;4274;52.012;8.448;2023-04-08T03:27:42;48.60;;;7.70;;
8474;SDS011;4274;52.012;8.448;2023-04-08T03:30:08;47.00;;;7.83;;
8474;SDS011;4274;52.012;8.448;2023-04-08T03:32:34;45.60;;;7.07;;
8474;SDS011;4274;52.012;8.448;2023-04-08T03:35:00;48.30;;;8.00;;
8474;SDS011;4274;52.012;8.448;2023-04-08T03:37:25;45.30;;;7.13;;
8474;SDS011;4274;52.012;8.448;2023-04-08T03:39:52;45.73;;;7.00;;
8474;SDS011;4274;52.012;8.448;2023-04-08T03:42:19;48.70;;;7.80;;
8474;SDS011;4274;52.012;8.448;2023-04-08T03:44:44;47.73;;;8.43;;
8474;SDS011;4274;52.012;8.448;2023-04-08T03:47:10;47.13;;;7.57;;
8474;SDS011;4274;52.012;8.448;2023-04-08T03:49:35;46.77;;;7.67;;
8474;SDS011;4274;52.012;8.448;2023-04-08T03:52:01;47.60;;;8.43;;
8474;SDS011;4274;52.012;8.448;2023-04-08T03:54:26;47.13;;;8.30;;
8474;SDS011;4274;52.012;8.448;2023-04-08T03:56:52;46.20;;;8.07;;
8474;SDS011;4274;52.012;8.448;2023-04-08T03:59:17;46.53;;;8.10;;
8474;SDS011;4274;52.012;8.448;2023-04-08T04:01:43;47.23;;;8.00;;
8474;SDS011;4274;52.012;8.448;2023-04-08T04:04:09;48.97;;;9.33;;
8474;SDS011;4274;52.012;8.448;2023-04-08T04:06:34;54.20;;;8.83;;
8474;SDS011;4274;52.012;8.448;2023-04-08T04:09:00;47.27;;;8.67;;
8474;SDS011;4274;52.012;8.448;2023-04-08T04:11:25;52.30;;;10.13;;
8474;SDS011;4274;52.012;8.448;2023-04-08T04:13:51;53.60;;;10.20;;
8474;SDS011;4274;52.012;8.448;2023-04-08T04:16:17;50.80;;;9.97;;
8474;SDS011;4274;52.012;8.448;2023-04-08T04:18:42;51.50;;;10.10;;
8474;SDS011;4274;52.012;8.448;2023-04-08T04:21:08;50.80;;;11.23;;
8474;SDS011;4274;52.012;8.448;2023-04-08T04:23:34;50.90;;;10.67;;
8474;SDS011;4274;52.012;8.448;2023-04-08T04:25:59;51.77;;;11.80;;
8474;SDS011;4274;52.012;8.448;2023-04-08T04:28:25;54.10;;;11.47;;
8474;SDS011;4274;52.012;8.448;2023-04-08T04:30:50;52.23;;;11.53;;
8474;SDS011;4274;52.012;8.448;2023-04-08T04:33:16;52.17;;;11.00;;
8474;SDS011;4274;52.012;8.448;2023-04-08T04:35:42;50.97;;;10.63;;
8474;SDS011;4274;52.012;8.448;2023-04-08T04:38:08;50.57;;;11.13;;
8474;SDS011;4274;52.012;8.448;2023-04-08T04:40:36;52.07;;;11.43;;
8474;SDS011;4274;52.012;8.448;2023-04-08T04:43:03;51.30;;;11.23;;
8474;SDS011;4274;52.012;8.448;2023-04-08T04:45:28;53.10;;;11.50;;
8474;SDS011;4274;52.012;8.448;2023-04-08T04:47:54;54.90;;;11.40;;
8474;SDS011;4274;52.012;8.448;2023-04-08T04:50:20;52.13;;;10.70;;
8474;SDS011;4274;52.012;8.448;2023-04-08T04:52:45;50.83;;;10.00;;
8474;SDS011;4274;52.012;8.448;2023-04-08T04:55:11;52.50;;;10.47;;
8474;SDS011;4274;52.012;8.448;2023-04-08T04:57:38;50.17;;;9.00;;
8474;SDS011;4274;52.012;8.448;2023-04-08T05:00:04;51.37;;;9.93;;
8474;SDS011;4274;52.012;8.448;2023-04-08T05:02:30;50.50;;;10.00;;
8474;SDS011;4274;52.012;8.448;2023-04-08T05:04:56;50.17;;;9.30;;
8474;SDS011;4274;52.012;8.448;2023-04-08T05:07:21;49.20;;;9.43;;
8474;SDS011;4274;52.012;8.448;2023-04-08T05:09:47;49.17;;;8.80;;
8474;SDS011;4274;52.012;8.448;2023-04-08T05:12:12;47.50;;;8.93;;
8474;SDS011;4274;52.012;8.448;2023-04-08T05:14:38;48.30;;;9.00;;
8474;SDS011;4274;52.012;8.448;2023-04-08T05:17:05;47.50;;;8.60;;
8474;SDS011;4274;52.012;8.448;2023-04-08T05:19:30;49.00;;;8.80;;
8474;SDS011;4274;52.012;8.448;2023-04-08T05:21:56;50.10;;;9.27;;
8474;SDS011;4274;52.012;8.448;2023-04-08T05:24:21;46.97;;;8.13;;
8474;SDS011;4274;52.012;8.448;2023-04-08T05:26:47;46.33;;;8.17;;
8474;SDS011;4274;52.012;8.448;2023-04-08T05:29:16;48.77;;;8.40;;
8474;SDS011;4274;52.012;8.448;2023-04-08T05:31:42;48.87;;;9.23;;
8474;SDS011;4274;52.012;8.448;2023-04-08T05:34:08;48.10;;;8.30;;
8474;SDS011;4274;52.012;8.448;2023-04-08T05:36:35;46.77;;;8.07;;
8474;SDS011;4274;52.012;8.448;2023-04-08T05:39:00;47.07;;;7.57;;
8474;SDS011;4274;52.012;8.448;2023-04-08T05:41:26;50.30;;;8.67;;
8474;SDS011;4274;52.012;8.448;2023-04-08T05:43:52;49.30;;;8.60;;
8474;SDS011;4274;52.012;8.448;2023-04-08T05:46:17;46.23;;;8.53;;
8474;SDS011;4274;52.012;8.448;2023-04-08T05:48:43;47.83;;;8.13;;
8474;SDS011;4274;52.012;8.448;2023-04-08T05:51:15;45.57;;;8.53;;
8474;SDS011;4274;52.012;8.448;2023-04-08T05:53:41;48.07;;;9.37;;
8474;SDS011;4274;52.012;8.448;2023-04-08T05:56:09;51.53;;;8.53;;
8474;SDS011;4274;52.012;8.448;2023-04-08T05:58:34;49.40;;;9.00;;
8474;SDS011;4274;52.012;8.448;2023-04-08T06:01:00;50.13;;;9.47;;
8474;SDS011;4274;52.012;8.448;2023-04-08T06:03:26;48.50;;;8.73;;
8474;SDS011;4274;52.012;8.448;2023-04-08T06:05:51;57.10;;;9.40;;
8474;SDS011;4274;52.012;8.448;2023-04-08T06:08:17;50.30;;;8.57;;
8474;SDS011;4274;52.012;8.448;2023-04-08T06:10:49;49.57;;;8.97;;
8474;SDS011;4274;52.012;8.448;2023-04-08T06:13:15;49.87;;;8.67;;
8474;SDS011;4274;52.012;8.448;2023-04-08T06:15:41;50.00;;;9.43;;
8474;SDS011;4274;52.012;8.448;2023-04-08T06:18:07;51.10;;;9.60;;
8474;SDS011;4274;52.012;8.448;2023-04-08T06:20:32;49.77;;;9.40;;
8474;SDS011;4274;52.012;8.448;2023-04-08T06:22:59;57.70;;;9.80;;
8474;SDS011;4274;52.012;8.448;2023-04-08T06:25:25;50.20;;;9.10;;
8474;SDS011;4274;52.012;8.448;2023-04-08T06:27:51;48.90;;;8.53;;
8474;SDS011;4274;52.012;8.448;2023-04-08T06:30:16;48.20;;;9.40;;
8474;SDS011;4274;52.012;8.448;2023-04-08T06:32:42;51.93;;;9.70;;
8474;SDS011;4274;52.012;8.448;2023-04-08T06:35:11;49.50;;;9.37;;
8474;SDS011;4274;52.012;8.448;2023-04-08T06:37:36;48.17;;;8.77;;
8474;SDS011;4274;52.012;8.448;2023-04-08T06:40:03;46.87;;;8.03;;
8474;SDS011;4274;52.012;8.448;2023-04-08T06:42:29;47.60;;;8.20;;
8474;SDS011;4274;52.012;8.448;2023-04-08T06:44:55;48.37;;;8.87;;
8474;SDS011;4274;52.012;8.448;2023-04-08T06:47:20;48.40;;;9.03;;
8474;SDS011;4274;52.012;8.448;2023-04-08T06:49:46;49.40;;;9.30;;
8474;SDS011;4274;52.012;8.448;2023-04-08T06:52:12;49.33;;;9.33;;
8474;SDS011;4274;52.012;8.448;2023-04-08T06:54:37;51.33;;;9.40;;
8474;SDS011;4274;52.012;8.448;2023-04-08T06:57:03;50.40;;;9.00;;
8474;SDS011;4274;52.012;8.448;2023-04-08T06:59:28;57.23;;;9.27;;
8474;SDS011;4274;52.012;8.448;2023-04-08T07:01:54;50.67;;;9.50;;
8474;SDS011;4274;52.012;8.448;2023-04-08T07:04:20;50.50;;;9.80;;
8474;SDS011;4274;52.012;8.448;2023-04-08T07:06:45;49.47;;;10.10;;
8474;SDS011;4274;52.012;8.448;2023-04-08T07:09:11;50.60;;;9.77;;
8474;SDS011;4274;52.012;8.448;2023-04-08T07:11:36;49.50;;;9.10;;
8474;SDS011;4274;52.012;8.448;2023-04-08T07:14:02;52.83;;;9.90;;
8474;SDS011;4274;52.012;8.448;2023-04-08T07:16:27;51.27;;;9.87;;
8474;SDS011;4274;52.012;8.448;2023-04-08T07:18:53;53.07;;;10.40;;
8474;SDS011;4274;52.012;8.448;2023-04-08T07:21:18;54.10;;;9.77;;
8474;SDS011;4274;52.012;8.448;2023-04-08T07:23:44;49.97;;;10.20;;
8474;SDS011;4274;52.012;8.448;2023-04-08T07:26:10;52.57;;;11.20;;
8474;SDS011;4274;52.012;8.448;2023-04-08T07:28:35;49.70;;;9.47;;
8474;SDS011;4274;52.012;8.448;2023-04-08T07:31:14;52.80;;;10.03;;
8474;SDS011;4274;52.012;8.448;2023-04-08T07:33:41;53.27;;;9.77;;
8474;SDS011;4274;52.012;8.448;2023-04-08T07:36:10;49.30;;;10.17;;
8474;SDS011;4274;52.012;8.448;2023-04-08T07:38:37;53.30;;;10.33;;
8474;SDS011;4274;52.012;8.448;2023-04-08T07:41:03;50.43;;;9.40;;
8474;SDS011;4274;52.012;8.448;2023-04-08T07:43:32;52.60;;;10.03;;
8474;SDS011;4274;52.012;8.448;2023-04-08T07:46:01;50.90;;;9.83;;
8474;SDS011;4274;52.012;8.448;2023-04-08T07:48:30;52.60;;;10.60;;
8474;SDS011;4274;52.012;8.448;2023-04-08T07:50:56;53.17;;;10.60;;
8474;SDS011;4274;52.012;8.448;2023-04-08T07:53:22;50.60;;;9.50;;
8474;SDS011;4274;52.012;8.448;2023-04-08T07:55:51;48.20;;;8.50;;
8474;SDS011;4274;52.012;8.448;2023-04-08T07:58:17;52.80;;;10.50;;
8474;SDS011;4274;52.012;8.448;2023-04-08T08:00:42;50.47;;;9.40;;
8474;SDS011;4274;52.012;8.448;2023-04-08T08:03:08;50.63;;;9.33;;
8474;SDS011;4274;52.012;8.448;2023-04-08T08:05:36;51.37;;;9.77;;
8474;SDS011;4274;52.012;8.448;2023-04-08T08:08:02;49.60;;;9.13;;
8474;SDS011;4274;52.012;8.448;2023-04-08T08:10:28;49.97;;;9.40;;
8474;SDS011;4274;52.012;8.448;2023-04-08T08:12:54;51.70;;;9.33;;
8474;SDS011;4274;52.012;8.448;2023-04-08T08:15:20;51.07;;;9.27;;
8474;SDS011;4274;52.012;8.448;2023-04-08T08:17:45;50.83;;;9.60;;
8474;SDS011;4274;52.012;8.448;2023-04-08T08:20:11;49.50;;;9.70;;
8474;SDS011;4274;52.012;8.448;2023-04-08T08:22:36;53.27;;;9.97;;
8474;SDS011;4274;52.012;8.448;2023-04-08T08:25:03;50.07;;;9.23;;
8474;SDS011;4274;52.012;8.448;2023-04-08T08:27:29;53.13;;;10.70;;
8474;SDS011;4274;52.012;8.448;2023-04-08T08:29:55;52.10;;;10.07;;
8474;SDS011;4274;52.012;8.448;2023-04-08T08:32:21;52.57;;;10.27;;
8474;SDS011;4274;52.012;8.448;2023-04-08T08:34:46;57.70;;;10.30;;
8474;SDS011;4274;52.012;8.448;2023-04-08T08:37:12;52.33;;;10.30;;
8474;SDS011;4274;52.012;8.448;2023-04-08T08:39:37;54.00;;;11.00;;
8474;SDS011;4274;52.012;8.448;2023-04-08T08:42:03;57.90;;;10.50;;
8474;SDS011;4274;52.012;8.448;2023-04-08T08:44:29;55.03;;;10.23;;
8474;SDS011;4274;52.012;8.448;2023-04-08T08:46:55;53.87;;;11.63;;
8474;SDS011;4274;52.012;8.448;2023-04-08T08:49:20;52.63;;;9.70;;
8474;SDS011;4274;52.012;8.448;2023-04-08T08:51:46;58.33;;;11.80;;
8474;SDS011;4274;52.012;8.448;2023-04-08T08:54:13;54.87;;;12.30;;
8474;SDS011;4274;52.012;8.448;2023-04-08T08:56:39;52.37;;;9.77;;
8474;SDS011;4274;52.012;8.448;2023-04-08T08:59:07;54.43;;;10.90;;
8474;SDS011;4274;52.012;8.448;2023-04-08T09:01:36;56.77;;;10.93;;
8474;SDS011;4274;52.012;8.448;2023-04-08T09:06:47;50.90;;;10.43;;
8474;SDS011;4274;52.012;8.448;2023-04-08T09:09:15;52.47;;;9.43;;
8474;SDS011;4274;52.012;8.448;2023-04-08T09:11:44;56.83;;;10.13;;
8474;SDS011;4274;52.012;8.448;2023-04-08T09:14:23;53.57;;;10.60;;
8474;SDS011;4274;52.012;8.448;2023-04-08T09:16:50;50.57;;;9.50;;
8474;SDS011;4274;52.012;8.448;2023-04-08T09:19:16;50.57;;;9.47;;
8474;SDS011;4274;52.012;8.448;2023-04-08T09:21:42;55.47;;;9.90;;
8474;SDS011;4274;52.012;8.448;2023-04-08T09:24:08;53.03;;;10.27;;
8474;SDS011;4274;52.012;8.448;2023-04-08T09:26:50;54.00;;;9.60;;
8474;SDS011;4274;52.012;8.448;2023-04-08T09:29:16;57.10;;;11.90;;
8474;SDS011;4274;52.012;8.448;2023-04-08T09:31:41;57.47;;;11.60;;
8474;SDS011;4274;52.012;8.448;2023-04-08T09:36:37;55.57;;;11.10;;
8474;SDS011;4274;52.012;8.448;2023-04-08T09:39:03;52.90;;;10.30;;
8474;SDS011;4274;52.012;8.448;2023-04-08T09:41:30;55.60;;;10.97;;
8474;SDS011;4274;52.012;8.448;2023-04-08T09:43:58;55.80;;;11.20;;
8474;SDS011;4274;52.012;8.448;2023-04-08T09:54:36;57.67;;;12.13;;
8474;SDS011;4274;52.012;8.448;2023-04-08T09:57:08;55.30;;;11.40;;
8474;SDS011;4274;52.012;8.448;2023-04-08T09:59:37;74.03;;;12.00;;
8474;SDS011;4274;52.012;8.448;2023-04-08T10:02:18;55.20;;;11.90;;
8474;SDS011;4274;52.012;8.448;2023-04-08T10:04:52;59.40;;;12.50;;
8474;SDS011;4274;52.012;8.448;2023-04-08T10:07:20;57.70;;;12.80;;
8474;SDS011;4274;52.012;8.448;2023-04-08T10:09:45;56.30;;;11.50;;
8474;SDS011;4274;52.012;8.448;2023-04-08T10:12:11;59.17;;;12.27;;
8474;SDS011;4274;52.012;8.448;2023-04-08T10:14:37;58.57;;;12.77;;
8474;SDS011;4274;52.012;8.448;2023-04-08T10:19:52;56.53;;;11.80;;
8474;SDS011;4274;52.012;8.448;2023-04-08T10:27:42;54.97;;;11.63;;
8474;SDS011;4274;52.012;8.448;2023-04-08T10:32:52;58.37;;;12.70;;
8474;SDS011;4274;52.012;8.448;2023-04-08T10:35:27;57.83;;;12.93;;
8474;SDS011;4274;52.012;8.448;2023-04-08T10:37:54;57.10;;;12.00;;
8474;SDS011;4274;52.012;8.448;2023-04-08T10:40:20;54.60;;;11.20;;
8474;SDS011;4274;52.012;8.448;2023-04-08T10:42:45;59.80;;;12.93;;
8474;SDS011;4274;52.012;8.448;2023-04-08T10:45:15;58.47;;;13.27;;
8474;SDS011;4274;52.012;8.448;2023-04-08T10:47:42;61.73;;;12.97;;
8474;SDS011;4274;52.012;8.448;2023-04-08T10:50:14;57.27;;;12.50;;
8474;SDS011;4274;52.012;8.448;2023-04-08T10:52:50;56.67;;;12.07;;
8474;SDS011;4274;52.012;8.448;2023-04-08T10:55:24;61.30;;;12.30;;
8474;SDS011;4274;52.012;8.448;2023-04-08T10:57:50;57.90;;;13.20;;
8474;SDS011;4274;52.012;8.448;2023-04-08T11:00:17;58.53;;;12.93;;
8474;SDS011;4274;52.012;8.448;2023-04-08T11:02:43;59.20;;;12.90;;
8474;SDS011;4274;52.012;8.448;2023-04-08T11:05:09;57.47;;;12.90;;
8474;SDS011;4274;52.012;8.448;2023-04-08T11:07:39;59.53;;;12.60;;
8474;SDS011;4274;52.012;8.448;2023-04-08T11:10:06;55.10;;;12.10;;
8474;SDS011;4274;52.012;8.448;2023-04-08T11:12:35;61.70;;;13.43;;
8474;SDS011;4274;52.012;8.448;2023-04-08T11:15:02;59.87;;;12.93;;
8474;SDS011;4274;52.012;8.448;2023-04-08T11:17:29;58.83;;;13.77;;
8474;SDS011;4274;52.012;8.448;2023-04-08T11:19:55;60.70;;;12.80;;
8474;SDS011;4274;52.012;8.448;2023-04-08T11:22:26;62.73;;;13.80;;
8474;SDS011;4274;52.012;8.448;2023-04-08T11:24:52;56.40;;;12.60;;
8474;SDS011;4274;52.012;8.448;2023-04-08T11:27:18;56.57;;;12.30;;
8474;SDS011;4274;52.012;8.448;2023-04-08T11:29:45;61.57;;;13.37;;
8474;SDS011;4274;52.012;8.448;2023-04-08T11:32:10;64.60;;;13.50;;
8474;SDS011;4274;52.012;8.448;2023-04-08T11:34:38;58.50;;;13.27;;
8474;SDS011;4274;52.012;8.448;2023-04-08T11:37:04;59.53;;;13.40;;
8474;SDS011;4274;52.012;8.448;2023-04-08T11:39:30;61.07;;;14.43;;
8474;SDS011;4274;52.012;8.448;2023-04-08T11:41:56;59.07;;;12.30;;
8474;SDS011;4274;52.012;8.448;2023-04-08T11:44:31;57.10;;;13.40;;
8474;SDS011;4274;52.012;8.448;2023-04-08T11:46:57;57.73;;;11.90;;
8474;SDS011;4274;52.012;8.448;2023-04-08T11:49:22;62.57;;;14.27;;
8474;SDS011;4274;52.012;8.448;2023-04-08T11:51:55;64.83;;;14.17;;
8474;SDS011;4274;52.012;8.448;2023-04-08T11:54:29;59.63;;;14.13;;
8474;SDS011;4274;52.012;8.448;2023-04-08T11:56:56;63.37;;;14.10;;
8474;SDS011;4274;52.012;8.448;2023-04-08T11:59:23;65.20;;;13.87;;
8474;SDS011;4274;52.012;8.448;2023-04-08T12:01:52;64.63;;;15.90;;
8474;SDS011;4274;52.012;8.448;2023-04-08T12:04:18;64.10;;;15.10;;
8474;SDS011;4274;52.012;8.448;2023-04-08T12:06:43;65.17;;;15.50;;
8474;SDS011;4274;52.012;8.448;2023-04-08T12:09:11;63.83;;;14.90;;
8474;SDS011;4274;52.012;8.448;2023-04-08T12:11:37;64.80;;;14.63;;
8474;SDS011;4274;52.012;8.448;2023-04-08T12:14:03;62.97;;;14.23;;
8474;SDS011;4274;52.012;8.448;2023-04-08T12:16:29;65.97;;;15.80;;
8474;SDS011;4274;52.012;8.448;2023-04-08T12:18:55;62.53;;;14.23;;
8474;SDS011;4274;52.012;8.448;2023-04-08T12:21:20;64.40;;;16.63;;
8474;SDS011;4274;52.012;8.448;2023-04-08T12:23:46;63.23;;;16.00;;
8474;SDS011;4274;52.012;8.448;2023-04-08T12:26:12;69.07;;;15.87;;
8474;SDS011;4274;52.012;8.448;2023-04-08T12:28:38;61.23;;;14.90;;
8474;SDS011;4274;52.012;8.448;2023-04-08T12:31:04;60.93;;;14.27;;
8474;SDS011;4274;52.012;8.448;2023-04-08T12:33:30;62.60;;;14.37;;
8474;SDS011;4274;52.012;8.448;2023-04-08T12:35:56;62.17;;;14.70;;
8474;SDS011;4274;52.012;8.448;2023-04-08T12:38:23;64.10;;;15.70;;
8474;SDS011;4274;52.012;8.448;2023-04-08T12:40:49;63.43;;;13.50;;
8474;SDS011;4274;52.012;8.448;2023-04-08T12:43:16;59.60;;;14.43;;
8474;SDS011;4274;52.012;8.448;2023-04-08T12:45:41;60.97;;;13.57;;
8474;SDS011;4274;52.012;8.448;2023-04-08T12:48:07;56.13;;;12.60;;
8474;SDS011;4274;52.012;8.448;2023-04-08T12:50:33;60.33;;;13.80;;
8474;SDS011;4274;52.012;8.448;2023-04-08T12:52:58;62.00;;;15.10;;
8474;SDS011;4274;52.012;8.448;2023-04-08T12:55:24;63.60;;;13.90;;
8474;SDS011;4274;52.012;8.448;2023-04-08T12:57:50;63.63;;;14.90;;
8474;SDS011;4274;52.012;8.448;2023-04-08T13:00:16;58.73;;;13.60;;
8474;SDS011;4274;52.012;8.448;2023-04-08T13:02:43;57.80;;;13.97;;
8474;SDS011;4274;52.012;8.448;2023-04-08T13:05:09;64.77;;;15.00;;
8474;SDS011;4274;52.012;8.448;2023-04-08T13:07:35;63.40;;;14.40;;
8474;SDS011;4274;52.012;8.448;2023-04-08T13:10:01;65.17;;;15.33;;
8474;SDS011;4274;52.012;8.448;2023-04-08T13:12:31;59.43;;;14.03;;
8474;SDS011;4274;52.012;8.448;2023-04-08T13:14:57;60.67;;;14.53;;
8474;SDS011;4274;52.012;8.448;2023-04-08T13:17:23;60.50;;;14.03;;
8474;SDS011;4274;52.012;8.448;2023-04-08T13:19:49;61.00;;;15.30;;
8474;SDS011;4274;52.012;8.448;2023-04-08T13:22:15;60.33;;;15.07;;
8474;SDS011;4274;52.012;8.448;2023-04-08T13:24:42;61.97;;;14.77;;
8474;SDS011;4274;52.012;8.448;2023-04-08T13:27:07;59.83;;;13.20;;
8474;SDS011;4274;52.012;8.448;2023-04-08T13:29:33;62.10;;;15.40;;
8474;SDS011;4274;52.012;8.448;2023-04-08T13:31:59;61.10;;;14.30;;
8474;SDS011;4274;52.012;8.448;2023-04-08T13:34:25;61.20;;;15.27;;
8474;SDS011;4274;52.012;8.448;2023-04-08T13:36:51;62.27;;;14.60;;
8474;SDS011;4274;52.012;8.448;2023-04-08T13:39:17;61.00;;;13.70;;
8474;SDS011;4274;52.012;8.448;2023-04-08T13:41:43;60.23;;;14.90;;
8474;SDS011;4274;52.012;8.448;2023-04-08T13:44:09;60.67;;;15.43;;
8474;SDS011;4274;52.012;8.448;2023-04-08T13:46:35;61.80;;;15.27;;
8474;SDS011;4274;52.012;8.448;2023-04-08T13:49:01;61.20;;;15.43;;
8474;SDS011;4274;52.012;8.448;2023-04-08T13:51:27;63.43;;;15.43;;
8474;SDS011;4274;52.012;8.448;2023-04-08T13:53:56;63.87;;;16.33;;
8474;SDS011;4274;52.012;8.448;2023-04-08T13:56:23;62.37;;;15.43;;
8474;SDS011;4274;52.012;8.448;2023-04-08T13:58:48;61.53;;;15.20;;
8474;SDS011;4274;52.012;8.448;2023-04-08T14:01:14;75.80;;;20.70;;
8474;SDS011;4274;52.012;8.448;2023-04-08T14:03:40;63.53;;;14.90;;
8474;SDS011;4274;52.012;8.448;2023-04-08T14:06:05;64.70;;;16.17;;
8474;SDS011;4274;52.012;8.448;2023-04-08T14:08:34;65.17;;;16.20;;
8474;SDS011;4274;52.012;8.448;2023-04-08T14:11:00;66.17;;;16.23;;
8474;SDS011;4274;52.012;8.448;2023-04-08T14:13:25;63.80;;;15.97;;
8474;SDS011;4274;52.012;8.448;2023-04-08T14:15:51;65.47;;;16.37;;
8474;SDS011;4274;52.012;8.448;2023-04-08T14:18:19;67.47;;;15.40;;
8474;SDS011;4274;52.012;8.448;2023-04-08T14:20:44;66.33;;;15.00;;
8474;SDS011;4274;52.012;8.448;2023-04-08T14:23:10;64.60;;;17.40;;
8474;SDS011;4274;52.012;8.448;2023-04-08T14:25:37;60.47;;;14.80;;
8474;SDS011;4274;52.012;8.448;2023-04-08T14:28:03;69.07;;;16.20;;
8474;SDS011;4274;52.012;8.448;2023-04-08T14:30:30;65.57;;;15.80;;
8474;SDS011;4274;52.012;8.448;2023-04-08T14:32:56;68.80;;;17.20;;
8474;SDS011;4274;52.012;8.448;2023-04-08T14:35:23;60.27;;;15.00;;
8474;SDS011;4274;52.012;8.448;2023-04-08T14:37:48;59.00;;;13.77;;
8474;SDS011;4274;52.012;8.448;2023-04-08T14:40:14;60.90;;;14.30;;
8474;SDS011;4274;52.012;8.448;2023-04-08T14:42:40;60.20;;;14.40;;
8474;SDS011;4274;52.012;8.448;2023-04-08T14:45:06;59.40;;;14.33;;
8474;SDS011;4274;52.012;8.448;2023-04-08T14:47:32;62.87;;;16.10;;
8474;SDS011;4274;52.012;8.448;2023-04-08T14:49:58;62.67;;;14.73;;
8474;SDS011;4274;52.012;8.448;2023-04-08T14:52:24;61.63;;;15.00;;
8474;SDS011;4274;52.012;8.448;2023-04-08T14:54:49;62.83;;;13.37;;
8474;SDS011;4274;52.012;8.448;2023-04-08T14:57:16;65.60;;;14.27;;
8474;SDS011;4274;52.012;8.448;2023-04-08T14:59:42;61.70;;;14.47;;
8474;SDS011;4274;52.012;8.448;2023-04-08T15:02:07;62.50;;;15.37;;
8474;SDS011;4274;52.012;8.448;2023-04-08T15:04:33;59.70;;;14.80;;
8474;SDS011;4274;52.012;8.448;2023-04-08T15:06:59;58.27;;;13.70;;
8474;SDS011;4274;52.012;8.448;2023-04-08T15:09:26;61.97;;;14.07;;
8474;SDS011;4274;52.012;8.448;2023-04-08T15:11:52;61.93;;;15.03;;
8474;SDS011;4274;52.012;8.448;2023-04-08T15:14:17;61.73;;;14.27;;
8474;SDS011;4274;52.012;8.448;2023-04-08T15:16:43;64.87;;;15.33;;